sensor_id;sensor_type;location;lat;lon;timestamp;pressure;altitude;pressure_sealevel;temperature;humidity
59877;BME280;74472;51.140;17.184;2024-03-22T00:01:45;100469.66;;;11.99;80.26
59877;BME280;74472;51.140;17.184;2024-03-22T00:04:12;100467.09;;;11.97;80.08
59877;BME280;74472;51.140;17.184;2024-03-22T00:06:38;100466.28;;;11.97;79.98
59877;BME280;74472;51.140;17.184;2024-03-22T00:09:04;100468.44;;;11.92;80.07
59877;BME280;74472;51.140;17.184;2024-03-22T00:11:29;100467.00;;;11.88;80.07
59877;BME280;74472;51.140;17.184;2024-03-22T00:13:55;100463.72;;;11.84;80.02
59877;BME280;74472;51.140;17.184;2024-03-22T00:16:20;100466.47;;;11.83;79.94
59877;BME280;74472;51.140;17.184;2024-03-22T00:18:45;100462.38;;;11.79;80.06
59877;BME280;74472;51.140;17.184;2024-03-22T00:21:11;100454.53;;;11.77;80.08
59877;BME280;74472;51.140;17.184;2024-03-22T00:23:36;100455.38;;;11.78;80.10
59877;BME280;74472;51.140;17.184;2024-03-22T00:26:02;100459.94;;;11.76;80.12
59877;BME280;74472;51.140;17.184;2024-03-22T00:28:27;100464.50;;;11.73;79.99
59877;BME280;74472;51.140;17.184;2024-03-22T00:30:52;100456.78;;;11.70;80.23
59877;BME280;74472;51.140;17.184;2024-03-22T00:33:17;100454.38;;;11.67;80.00
59877;BME280;74472;51.140;17.184;2024-03-22T00:35:43;100459.19;;;11.62;79.88
59877;BME280;74472;51.140;17.184;2024-03-22T00:38:08;100465.53;;;11.60;80.04
59877;BME280;74472;51.140;17.184;2024-03-22T00:40:33;100466.50;;;11.59;80.26
59877;BME280;74472;51.140;17.184;2024-03-22T00:42:59;100459.50;;;11.58;80.10
59877;BME280;74472;51.140;17.184;2024-03-22T00:45:24;100465.91;;;11.55;80.22
59877;BME280;74472;51.140;17.184;2024-03-22T00:47:49;100466.72;;;11.56;80.10
59877;BME280;74472;51.140;17.184;2024-03-22T00:50:14;100478.00;;;11.58;80.34
59877;BME280;74472;51.140;17.184;2024-03-22T00:52:40;100467.56;;;11.56;80.17
59877;BME280;74472;51.140;17.184;2024-03-22T00:55:07;100474.97;;;11.51;79.94
59877;BME280;74472;51.140;17.184;2024-03-22T00:57:32;100467.41;;;11.46;79.33
59877;BME280;74472;51.140;17.184;2024-03-22T00:59:57;100460.78;;;11.41;79.13
59877;BME280;74472;51.140;17.184;2024-03-22T01:02:22;100469.66;;;11.40;78.61
59877;BME280;74472;51.140;17.184;2024-03-22T01:04:48;100467.97;;;11.39;78.68
59877;BME280;74472;51.140;17.184;2024-03-22T01:07:13;100473.13;;;11.40;78.36
59877;BME280;74472;51.140;17.184;2024-03-22T01:09:39;100468.53;;;11.31;78.00
59877;BME280;74472;51.140;17.184;2024-03-22T01:12:04;100469.84;;;11.25;77.88
59877;BME280;74472;51.140;17.184;2024-03-22T01:14:30;100469.53;;;11.17;77.79
59877;BME280;74472;51.140;17.184;2024-03-22T01:16:55;100464.38;;;11.16;77.43
59877;BME280;74472;51.140;17.184;2024-03-22T01:19:21;100469.75;;;11.14;77.98
59877;BME280;74472;51.140;17.184;2024-03-22T01:21:48;100472.41;;;11.14;77.75
59877;BME280;74472;51.140;17.184;2024-03-22T01:24:13;100464.59;;;11.13;77.50
59877;BME280;74472;51.140;17.184;2024-03-22T01:26:38;100456.78;;;11.11;77.63
59877;BME280;74472;51.140;17.184;2024-03-22T01:29:03;100461.84;;;11.14;77.67
59877;BME280;74472;51.140;17.184;2024-03-22T01:31:29;100455.38;;;11.18;77.53
59877;BME280;74472;51.140;17.184;2024-03-22T01:33:54;100464.38;;;11.16;77.40
59877;BME280;74472;51.140;17.184;2024-03-22T01:36:19;100453.22;;;11.12;77.29
59877;BME280;74472;51.140;17.184;2024-03-22T01:38:45;100453.28;;;11.11;77.21
59877;BME280;74472;51.140;17.184;2024-03-22T01:41:10;100455.94;;;11.11;77.17
59877;BME280;74472;51.140;17.184;2024-03-22T01:43:35;100444.34;;;11.00;77.16
59877;BME280;74472;51.140;17.184;2024-03-22T01:46:01;100446.38;;;10.97;77.09
59877;BME280;74472;51.140;17.184;2024-03-22T01:48:26;100441.66;;;10.89;76.99
59877;BME280;74472;51.140;17.184;2024-03-22T01:50:52;100437.66;;;10.84;77.14
59877;BME280;74472;51.140;17.184;2024-03-22T01:53:18;100435.34;;;10.79;77.31
59877;BME280;74472;51.140;17.184;2024-03-22T01:55:43;100438.94;;;10.78;77.32
59877;BME280;74472;51.140;17.184;2024-03-22T01:58:08;100439.16;;;10.75;77.25
59877;BME280;74472;51.140;17.184;2024-03-22T02:00:34;100430.31;;;10.76;77.35
59877;BME280;74472;51.140;17.184;2024-03-22T02:02:59;100429.34;;;10.77;77.26
59877;BME280;74472;51.140;17.184;2024-03-22T02:05:24;100419.63;;;10.77;77.26
59877;BME280;74472;51.140;17.184;2024-03-22T02:07:50;100424.28;;;10.74;77.34
59877;BME280;74472;51.140;17.184;2024-03-22T02:10:15;100427.75;;;10.74;77.38
59877;BME280;74472;51.140;17.184;2024-03-22T02:12:41;100433.25;;;10.71;77.37
59877;BME280;74472;51.140;17.184;2024-03-22T02:15:07;100440.56;;;10.68;77.24
59877;BME280;74472;51.140;17.184;2024-03-22T02:17:33;100426.19;;;10.59;77.40
59877;BME280;74472;51.140;17.184;2024-03-22T02:19:59;100441.19;;;10.59;77.63
59877;BME280;74472;51.140;17.184;2024-03-22T02:22:26;100434.66;;;10.51;77.88
59877;BME280;74472;51.140;17.184;2024-03-22T02:24:51;100437.66;;;10.47;77.82
59877;BME280;74472;51.140;17.184;2024-03-22T02:27:16;100430.78;;;10.44;78.43
59877;BME280;74472;51.140;17.184;2024-03-22T02:29:42;100426.78;;;10.39;78.38
59877;BME280;74472;51.140;17.184;2024-03-22T02:32:07;100433.00;;;10.38;78.61
59877;BME280;74472;51.140;17.184;2024-03-22T02:34:33;100430.59;;;10.35;78.66
59877;BME280;74472;51.140;17.184;2024-03-22T02:36:58;100428.28;;;10.30;78.81
59877;BME280;74472;51.140;17.184;2024-03-22T02:39:23;100426.97;;;10.36;79.24
59877;BME280;74472;51.140;17.184;2024-03-22T02:41:50;100428.44;;;10.40;79.09
59877;BME280;74472;51.140;17.184;2024-03-22T02:44:15;100428.56;;;10.38;78.86
59877;BME280;74472;51.140;17.184;2024-03-22T02:46:41;100425.31;;;10.35;79.12
59877;BME280;74472;51.140;17.184;2024-03-22T02:49:06;100419.91;;;10.36;79.23
59877;BME280;74472;51.140;17.184;2024-03-22T02:51:31;100424.13;;;10.39;79.56
59877;BME280;74472;51.140;17.184;2024-03-22T02:53:57;100413.06;;;10.33;79.13
59877;BME280;74472;51.140;17.184;2024-03-22T02:56:22;100418.34;;;10.33;79.59
59877;BME280;74472;51.140;17.184;2024-03-22T02:58:49;100428.50;;;10.27;79.47
59877;BME280;74472;51.140;17.184;2024-03-22T03:01:14;100423.47;;;10.22;80.26
59877;BME280;74472;51.140;17.184;2024-03-22T03:03:40;100420.34;;;10.17;80.00
59877;BME280;74472;51.140;17.184;2024-03-22T03:06:05;100424.66;;;10.18;80.24
59877;BME280;74472;51.140;17.184;2024-03-22T03:08:30;100415.28;;;10.14;80.34
59877;BME280;74472;51.140;17.184;2024-03-22T03:10:56;100410.31;;;10.09;80.53
59877;BME280;74472;51.140;17.184;2024-03-22T03:13:21;100412.44;;;10.04;80.94
59877;BME280;74472;51.140;17.184;2024-03-22T03:15:46;100412.00;;;9.98;81.14
59877;BME280;74472;51.140;17.184;2024-03-22T03:18:12;100412.44;;;9.92;81.48
59877;BME280;74472;51.140;17.184;2024-03-22T03:20:37;100401.88;;;9.92;81.69
59877;BME280;74472;51.140;17.184;2024-03-22T03:23:03;100410.63;;;9.92;81.81
59877;BME280;74472;51.140;17.184;2024-03-22T03:25:28;100399.25;;;9.92;82.04
59877;BME280;74472;51.140;17.184;2024-03-22T03:27:53;100392.50;;;9.88;82.04
59877;BME280;74472;51.140;17.184;2024-03-22T03:30:19;100398.50;;;9.90;82.46
59877;BME280;74472;51.140;17.184;2024-03-22T03:32:44;100403.78;;;9.90;82.81
59877;BME280;74472;51.140;17.184;2024-03-22T03:35:09;100395.16;;;9.88;83.00
59877;BME280;74472;51.140;17.184;2024-03-22T03:37:35;100404.38;;;9.80;83.12
59877;BME280;74472;51.140;17.184;2024-03-22T03:40:00;100398.19;;;9.81;83.35
59877;BME280;74472;51.140;17.184;2024-03-22T03:42:26;100397.34;;;9.81;83.57
59877;BME280;74472;51.140;17.184;2024-03-22T03:44:51;100393.84;;;9.80;83.73
59877;BME280;74472;51.140;17.184;2024-03-22T03:47:16;100392.09;;;9.81;83.87
59877;BME280;74472;51.140;17.184;2024-03-22T03:49:42;100397.22;;;9.82;83.81
59877;BME280;74472;51.140;17.184;2024-03-22T03:52:07;100397.56;;;9.91;83.98
59877;BME280;74472;51.140;17.184;2024-03-22T03:54:32;100401.56;;;9.96;83.82
59877;BME280;74472;51.140;17.184;2024-03-22T03:56:57;100397.38;;;9.94;83.88
59877;BME280;74472;51.140;17.184;2024-03-22T03:59:23;100392.09;;;9.94;84.19
59877;BME280;74472;51.140;17.184;2024-03-22T04:01:48;100399.03;;;9.95;84.21
59877;BME280;74472;51.140;17.184;2024-03-22T04:04:14;100402.50;;;9.95;84.35
59877;BME280;74472;51.140;17.184;2024-03-22T04:06:39;100396.41;;;9.95;84.38
59877;BME280;74472;51.140;17.184;2024-03-22T04:09:05;100393.66;;;9.96;84.57
59877;BME280;74472;51.140;17.184;2024-03-22T04:11:31;100398.09;;;9.96;84.61
59877;BME280;74472;51.140;17.184;2024-03-22T04:13:56;100395.56;;;9.94;84.56
59877;BME280;74472;51.140;17.184;2024-03-22T04:16:22;100403.78;;;10.02;84.75
59877;BME280;74472;51.140;17.184;2024-03-22T04:18:47;100406.31;;;10.04;84.51
59877;BME280;74472;51.140;17.184;2024-03-22T04:21:12;100402.72;;;10.05;84.78
59877;BME280;74472;51.140;17.184;2024-03-22T04:23:38;100401.25;;;10.01;84.91
59877;BME280;74472;51.140;17.184;2024-03-22T04:26:03;100396.91;;;10.00;84.85
59877;BME280;74472;51.140;17.184;2024-03-22T04:28:30;100390.50;;;10.04;84.75
59877;BME280;74472;51.140;17.184;2024-03-22T04:33:21;100385.44;;;10.01;85.11
59877;BME280;74472;51.140;17.184;2024-03-22T04:35:47;100380.38;;;9.98;84.81
59877;BME280;74472;51.140;17.184;2024-03-22T04:38:12;100390.72;;;10.01;84.86
59877;BME280;74472;51.140;17.184;2024-03-22T04:40:37;100398.72;;;9.99;85.02
59877;BME280;74472;51.140;17.184;2024-03-22T04:43:03;100395.97;;;10.01;85.04
59877;BME280;74472;51.140;17.184;2024-03-22T04:45:28;100393.13;;;10.04;85.03
59877;BME280;74472;51.140;17.184;2024-03-22T04:47:53;100402.94;;;10.02;85.02
59877;BME280;74472;51.140;17.184;2024-03-22T04:50:18;100400.41;;;10.00;85.14
59877;BME280;74472;51.140;17.184;2024-03-22T04:52:44;100413.91;;;9.96;85.32
59877;BME280;74472;51.140;17.184;2024-03-22T04:55:09;100407.16;;;9.92;85.27
59877;BME280;74472;51.140;17.184;2024-03-22T04:57:34;100407.16;;;9.92;85.58
59877;BME280;74472;51.140;17.184;2024-03-22T04:59:59;100402.94;;;9.89;85.47
59877;BME280;74472;51.140;17.184;2024-03-22T05:02:25;100397.97;;;9.84;85.63
59877;BME280;74472;51.140;17.184;2024-03-22T05:04:50;100399.88;;;9.82;85.66
59877;BME280;74472;51.140;17.184;2024-03-22T05:07:15;100400.91;;;9.80;85.95
59877;BME280;74472;51.140;17.184;2024-03-22T05:09:40;100403.34;;;9.83;85.89
59877;BME280;74472;51.140;17.184;2024-03-22T05:12:06;100400.81;;;9.81;85.83
59877;BME280;74472;51.140;17.184;2024-03-22T05:14:31;100400.72;;;9.83;85.83
59877;BME280;74472;51.140;17.184;2024-03-22T05:16:56;100401.47;;;9.85;85.86
59877;BME280;74472;51.140;17.184;2024-03-22T05:19:22;100396.19;;;9.85;85.74
59877;BME280;74472;51.140;17.184;2024-03-22T05:21:47;100393.34;;;9.88;85.75
59877;BME280;74472;51.140;17.184;2024-03-22T05:24:12;100388.28;;;9.85;85.85
59877;BME280;74472;51.140;17.184;2024-03-22T05:26:37;100392.50;;;9.88;85.41
59877;BME280;74472;51.140;17.184;2024-03-22T05:29:03;100395.16;;;9.88;85.57
59877;BME280;74472;51.140;17.184;2024-03-22T05:31:28;100398.91;;;9.83;85.48
59877;BME280;74472;51.140;17.184;2024-03-22T05:33:54;100400.00;;;9.81;85.56
59877;BME280;74472;51.140;17.184;2024-03-22T05:36:19;100403.56;;;9.80;85.53
59877;BME280;74472;51.140;17.184;2024-03-22T05:38:44;100406.09;;;9.81;85.62
59877;BME280;74472;51.140;17.184;2024-03-22T05:41:10;100401.03;;;9.78;85.47
59877;BME280;74472;51.140;17.184;2024-03-22T05:43:35;100415.25;;;9.76;85.17
59877;BME280;74472;51.140;17.184;2024-03-22T05:46:00;100414.75;;;9.71;85.50
59877;BME280;74472;51.140;17.184;2024-03-22T05:48:26;100408.72;;;9.69;85.37
59877;BME280;74472;51.140;17.184;2024-03-22T05:50:51;100410.19;;;9.73;85.58
59877;BME280;74472;51.140;17.184;2024-03-22T05:53:17;100421.56;;;9.73;85.21
59877;BME280;74472;51.140;17.184;2024-03-22T05:55:43;100420.84;;;9.71;85.14
59877;BME280;74472;51.140;17.184;2024-03-22T05:58:08;100418.31;;;9.70;85.05
59877;BME280;74472;51.140;17.184;2024-03-22T06:00:34;100412.81;;;9.73;85.29
59877;BME280;74472;51.140;17.184;2024-03-22T06:02:59;100416.22;;;9.75;84.99
59877;BME280;74472;51.140;17.184;2024-03-22T06:05:25;100409.34;;;9.72;84.66
59877;BME280;74472;51.140;17.184;2024-03-22T06:07:50;100411.34;;;9.69;84.89
59877;BME280;74472;51.140;17.184;2024-03-22T06:10:15;100403.78;;;9.64;85.14
59877;BME280;74472;51.140;17.184;2024-03-22T06:12:42;100414.94;;;9.68;84.73
59877;BME280;74472;51.140;17.184;2024-03-22T06:15:09;100409.47;;;9.71;84.99
59877;BME280;74472;51.140;17.184;2024-03-22T06:17:35;100414.50;;;9.74;85.09
59877;BME280;74472;51.140;17.184;2024-03-22T06:20:00;100401.31;;;9.74;84.71
59877;BME280;74472;51.140;17.184;2024-03-22T06:22:26;100412.75;;;9.74;84.75
59877;BME280;74472;51.140;17.184;2024-03-22T06:24:51;100412.19;;;9.69;84.54
59877;BME280;74472;51.140;17.184;2024-03-22T06:27:17;100413.03;;;9.70;84.55
59877;BME280;74472;51.140;17.184;2024-03-22T06:29:42;100400.19;;;9.65;84.49
59877;BME280;74472;51.140;17.184;2024-03-22T06:32:08;100406.16;;;9.67;84.39
59877;BME280;74472;51.140;17.184;2024-03-22T06:34:33;100405.25;;;9.68;84.60
59877;BME280;74472;51.140;17.184;2024-03-22T06:36:58;100412.09;;;9.71;84.42
59877;BME280;74472;51.140;17.184;2024-03-22T06:39:23;100397.13;;;9.71;84.23
59877;BME280;74472;51.140;17.184;2024-03-22T06:41:49;100402.72;;;9.79;84.64
59877;BME280;74472;51.140;17.184;2024-03-22T06:44:14;100396.06;;;9.86;84.40
59877;BME280;74472;51.140;17.184;2024-03-22T06:46:39;100395.84;;;9.90;84.18
59877;BME280;74472;51.140;17.184;2024-03-22T06:49:05;100402.72;;;9.92;83.97
59877;BME280;74472;51.140;17.184;2024-03-22T06:51:30;100393.34;;;9.88;83.94
59877;BME280;74472;51.140;17.184;2024-03-22T06:53:56;100390.28;;;9.94;83.81
59877;BME280;74472;51.140;17.184;2024-03-22T06:56:21;100392.31;;;9.91;82.94
59877;BME280;74472;51.140;17.184;2024-03-22T06:58:46;100388.16;;;9.86;83.33
59877;BME280;74472;51.140;17.184;2024-03-22T07:01:12;100381.22;;;9.85;82.85
59877;BME280;74472;51.140;17.184;2024-03-22T07:03:37;100387.03;;;9.91;83.32
59877;BME280;74472;51.140;17.184;2024-03-22T07:06:02;100380.78;;;9.92;82.98
59877;BME280;74472;51.140;17.184;2024-03-22T07:08:28;100366.88;;;9.90;82.95
59877;BME280;74472;51.140;17.184;2024-03-22T07:10:54;100373.63;;;9.94;83.04
59877;BME280;74472;51.140;17.184;2024-03-22T07:13:20;100374.16;;;9.99;83.20
59877;BME280;74472;51.140;17.184;2024-03-22T07:15:46;100374.78;;;10.02;82.80
59877;BME280;74472;51.140;17.184;2024-03-22T07:18:12;100374.56;;;10.05;82.76
59877;BME280;74472;51.140;17.184;2024-03-22T07:20:38;100371.59;;;10.10;82.33
59877;BME280;74472;51.140;17.184;2024-03-22T07:23:03;100366.84;;;10.15;82.12
59877;BME280;74472;51.140;17.184;2024-03-22T07:25:29;100375.59;;;10.16;81.65
59877;BME280;74472;51.140;17.184;2024-03-22T07:27:54;100388.16;;;10.12;81.40
59877;BME280;74472;51.140;17.184;2024-03-22T07:30:20;100393.03;;;10.05;81.06
59877;BME280;74472;51.140;17.184;2024-03-22T07:32:46;100387.97;;;10.02;81.35
59877;BME280;74472;51.140;17.184;2024-03-22T07:35:12;100390.50;;;10.04;81.43
59877;BME280;74472;51.140;17.184;2024-03-22T07:37:38;100392.06;;;10.06;81.07
59877;BME280;74472;51.140;17.184;2024-03-22T07:40:03;100389.41;;;10.06;81.36
59877;BME280;74472;51.140;17.184;2024-03-22T07:42:30;100381.22;;;10.11;81.00
59877;BME280;74472;51.140;17.184;2024-03-22T07:44:55;100388.38;;;10.09;80.76
59877;BME280;74472;51.140;17.184;2024-03-22T07:47:21;100386.91;;;10.05;80.78
59877;BME280;74472;51.140;17.184;2024-03-22T07:49:46;100382.38;;;10.07;80.79
59877;BME280;74472;51.140;17.184;2024-03-22T07:52:11;100372.97;;;10.03;80.50
59877;BME280;74472;51.140;17.184;2024-03-22T07:54:37;100373.72;;;10.05;80.89
59877;BME280;74472;51.140;17.184;2024-03-22T07:57:02;100371.09;;;10.05;80.84
59877;BME280;74472;51.140;17.184;2024-03-22T07:59:29;100360.34;;;10.08;81.38
59877;BME280;74472;51.140;17.184;2024-03-22T08:01:54;100360.53;;;10.18;81.42
59877;BME280;74472;51.140;17.184;2024-03-22T08:04:19;100359.97;;;10.25;81.35
59877;BME280;74472;51.140;17.184;2024-03-22T08:06:45;100347.56;;;10.27;80.91
59877;BME280;74472;51.140;17.184;2024-03-22T08:09:11;100348.19;;;10.31;80.64
59877;BME280;74472;51.140;17.184;2024-03-22T08:11:36;100341.34;;;10.28;80.66
59877;BME280;74472;51.140;17.184;2024-03-22T08:14:01;100335.09;;;10.29;80.50
59877;BME280;74472;51.140;17.184;2024-03-22T08:16:29;100336.59;;;10.33;80.46
59877;BME280;74472;51.140;17.184;2024-03-22T08:18:55;100336.25;;;10.38;80.67
59877;BME280;74472;51.140;17.184;2024-03-22T08:21:22;100328.22;;;10.40;80.45
59877;BME280;74472;51.140;17.184;2024-03-22T08:23:47;100326.22;;;10.43;80.81
59877;BME280;74472;51.140;17.184;2024-03-22T08:26:12;100321.75;;;10.56;81.16
59877;BME280;74472;51.140;17.184;2024-03-22T08:28:38;100328.97;;;10.66;80.53
59877;BME280;74472;51.140;17.184;2024-03-22T08:31:04;100322.94;;;10.76;80.79
59877;BME280;74472;51.140;17.184;2024-03-22T08:33:29;100317.91;;;10.85;80.53
59877;BME280;74472;51.140;17.184;2024-03-22T08:35:55;100316.50;;;10.92;79.90
59877;BME280;74472;51.140;17.184;2024-03-22T08:38:20;100316.28;;;10.95;80.09
59877;BME280;74472;51.140;17.184;2024-03-22T08:40:46;100311.50;;;11.00;79.67
59877;BME280;74472;51.140;17.184;2024-03-22T08:43:11;100316.56;;;11.03;79.37
59877;BME280;74472;51.140;17.184;2024-03-22T08:45:36;100307.91;;;11.01;79.76
59877;BME280;74472;51.140;17.184;2024-03-22T08:48:02;100303.22;;;11.04;79.26
59877;BME280;74472;51.140;17.184;2024-03-22T08:50:27;100295.81;;;11.10;79.13
59877;BME280;74472;51.140;17.184;2024-03-22T08:52:53;100291.72;;;11.06;78.94
59877;BME280;74472;51.140;17.184;2024-03-22T08:55:18;100290.63;;;11.08;79.15
59877;BME280;74472;51.140;17.184;2024-03-22T08:57:43;100279.75;;;11.13;78.86
59877;BME280;74472;51.140;17.184;2024-03-22T09:00:09;100281.19;;;11.17;78.86
59877;BME280;74472;51.140;17.184;2024-03-22T09:02:36;100278.41;;;11.18;78.80
59877;BME280;74472;51.140;17.184;2024-03-22T09:05:02;100270.38;;;11.20;78.30
59877;BME280;74472;51.140;17.184;2024-03-22T09:07:27;100266.69;;;11.22;78.61
59877;BME280;74472;51.140;17.184;2024-03-22T09:09:52;100276.41;;;11.33;78.59
59877;BME280;74472;51.140;17.184;2024-03-22T09:12:19;100267.78;;;11.42;78.80
59877;BME280;74472;51.140;17.184;2024-03-22T09:14:44;100261.44;;;11.56;78.57
59877;BME280;74472;51.140;17.184;2024-03-22T09:17:09;100260.13;;;11.62;77.63
59877;BME280;74472;51.140;17.184;2024-03-22T09:19:34;100267.09;;;11.63;78.23
59877;BME280;74472;51.140;17.184;2024-03-22T09:22:00;100266.72;;;11.67;77.21
59877;BME280;74472;51.140;17.184;2024-03-22T09:24:25;100266.00;;;11.65;77.44
59877;BME280;74472;51.140;17.184;2024-03-22T09:26:50;100261.44;;;11.67;77.25
59877;BME280;74472;51.140;17.184;2024-03-22T09:29:15;100270.69;;;11.73;77.45
59877;BME280;74472;51.140;17.184;2024-03-22T09:31:41;100268.66;;;11.77;77.80
59877;BME280;74472;51.140;17.184;2024-03-22T09:34:06;100261.31;;;11.80;77.12
59877;BME280;74472;51.140;17.184;2024-03-22T09:36:31;100271.78;;;11.82;76.68
59877;BME280;74472;51.140;17.184;2024-03-22T09:39:01;100267.13;;;11.85;77.05
59877;BME280;74472;51.140;17.184;2024-03-22T09:41:26;100260.63;;;11.89;76.64
59877;BME280;74472;51.140;17.184;2024-03-22T09:43:52;100263.75;;;11.94;76.84
59877;BME280;74472;51.140;17.184;2024-03-22T09:46:21;100267.00;;;11.98;76.37
59877;BME280;74472;51.140;17.184;2024-03-22T09:48:48;100258.09;;;11.99;76.32
59877;BME280;74472;51.140;17.184;2024-03-22T09:51:16;100261.47;;;12.01;76.12
59877;BME280;74472;51.140;17.184;2024-03-22T09:53:44;100264.94;;;12.02;75.92
59877;BME280;74472;51.140;17.184;2024-03-22T09:56:12;100254.97;;;12.05;75.81
59877;BME280;74472;51.140;17.184;2024-03-22T09:58:39;100253.16;;;12.06;75.67
59877;BME280;74472;51.140;17.184;2024-03-22T10:01:05;100244.25;;;12.07;75.99
59877;BME280;74472;51.140;17.184;2024-03-22T10:03:31;100239.69;;;12.09;75.34
59877;BME280;74472;51.140;17.184;2024-03-22T10:05:56;100247.84;;;12.17;75.85
59877;BME280;74472;51.140;17.184;2024-03-22T10:08:21;100246.41;;;12.24;75.67
59877;BME280;74472;51.140;17.184;2024-03-22T10:10:47;100245.28;;;12.27;75.73
59877;BME280;74472;51.140;17.184;2024-03-22T10:13:12;100232.06;;;12.27;75.78
59877;BME280;74472;51.140;17.184;2024-03-22T10:15:37;100236.41;;;12.28;75.49
59877;BME280;74472;51.140;17.184;2024-03-22T10:18:03;100227.50;;;12.29;75.20
59877;BME280;74472;51.140;17.184;2024-03-22T10:20:29;100235.19;;;12.32;75.48
59877;BME280;74472;51.140;17.184;2024-03-22T10:22:55;100233.13;;;12.35;74.84
59877;BME280;74472;51.140;17.184;2024-03-22T10:25:23;100229.16;;;12.41;75.04
59877;BME280;74472;51.140;17.184;2024-03-22T10:27:48;100226.13;;;12.46;74.57
59877;BME280;74472;51.140;17.184;2024-03-22T10:30:16;100229.34;;;12.49;74.96
59877;BME280;74472;51.140;17.184;2024-03-22T10:32:42;100224.06;;;12.49;74.31
59877;BME280;74472;51.140;17.184;2024-03-22T10:35:11;100227.44;;;12.51;74.70
59877;BME280;74472;51.140;17.184;2024-03-22T10:37:38;100219.81;;;12.58;74.95
59877;BME280;74472;51.140;17.184;2024-03-22T10:40:05;100224.34;;;12.67;74.79
59877;BME280;74472;51.140;17.184;2024-03-22T10:42:37;100220.91;;;12.76;74.99
59877;BME280;74472;51.140;17.184;2024-03-22T10:45:04;100213.31;;;12.83;74.25
59877;BME280;74472;51.140;17.184;2024-03-22T10:47:31;100205.00;;;12.87;73.52
59877;BME280;74472;51.140;17.184;2024-03-22T10:50:06;100204.84;;;12.89;73.76
59877;BME280;74472;51.140;17.184;2024-03-22T10:52:54;100206.00;;;12.96;74.02
59877;BME280;74472;51.140;17.184;2024-03-22T10:55:25;100197.03;;;13.08;73.38
59877;BME280;74472;51.140;17.184;2024-03-22T10:57:53;100185.78;;;13.16;73.55
59877;BME280;74472;51.140;17.184;2024-03-22T11:00:30;100194.19;;;13.21;72.67
59877;BME280;74472;51.140;17.184;2024-03-22T11:02:56;100190.69;;;13.21;72.44
59877;BME280;74472;51.140;17.184;2024-03-22T11:05:21;100191.41;;;13.23;71.93
59877;BME280;74472;51.140;17.184;2024-03-22T11:07:47;100191.16;;;13.26;70.85
59877;BME280;74472;51.140;17.184;2024-03-22T11:10:13;100186.47;;;13.29;70.75
59877;BME280;74472;51.140;17.184;2024-03-22T11:12:39;100180.88;;;13.32;70.75
59877;BME280;74472;51.140;17.184;2024-03-22T11:15:05;100169.47;;;13.42;71.54
59877;BME280;74472;51.140;17.184;2024-03-22T11:17:30;100170.50;;;13.50;71.02
59877;BME280;74472;51.140;17.184;2024-03-22T11:19:56;100153.91;;;13.58;70.55
59877;BME280;74472;51.140;17.184;2024-03-22T11:22:22;100150.59;;;13.66;70.79
59877;BME280;74472;51.140;17.184;2024-03-22T11:24:47;100150.91;;;13.72;69.76
59877;BME280;74472;51.140;17.184;2024-03-22T11:27:12;100148.38;;;13.80;70.23
59877;BME280;74472;51.140;17.184;2024-03-22T11:29:39;100138.34;;;13.84;69.73
59877;BME280;74472;51.140;17.184;2024-03-22T11:32:07;100132.34;;;13.92;69.94
59877;BME280;74472;51.140;17.184;2024-03-22T11:34:35;100125.81;;;13.96;69.36
59877;BME280;74472;51.140;17.184;2024-03-22T11:37:00;100126.38;;;13.99;68.85
59877;BME280;74472;51.140;17.184;2024-03-22T11:39:25;100120.78;;;14.02;68.55
59877;BME280;74472;51.140;17.184;2024-03-22T11:41:51;100124.28;;;14.03;68.89
59877;BME280;74472;51.140;17.184;2024-03-22T11:44:16;100120.09;;;14.10;68.81
59877;BME280;74472;51.140;17.184;2024-03-22T11:46:44;100107.53;;;14.12;68.94
59877;BME280;74472;51.140;17.184;2024-03-22T11:49:10;100102.91;;;14.14;68.16
59877;BME280;74472;51.140;17.184;2024-03-22T11:51:36;100086.44;;;14.11;68.44
59877;BME280;74472;51.140;17.184;2024-03-22T11:54:03;100085.88;;;14.17;68.31
59877;BME280;74472;51.140;17.184;2024-03-22T11:56:28;100082.94;;;14.20;67.36
59877;BME280;74472;51.140;17.184;2024-03-22T11:58:59;100073.44;;;14.17;67.18
59877;BME280;74472;51.140;17.184;2024-03-22T12:01:26;100074.81;;;14.21;67.42
59877;BME280;74472;51.140;17.184;2024-03-22T12:03:51;100080.72;;;14.25;67.46
59877;BME280;74472;51.140;17.184;2024-03-22T12:06:17;100075.97;;;14.28;67.42
59877;BME280;74472;51.140;17.184;2024-03-22T12:08:42;100074.97;;;14.29;66.82
59877;BME280;74472;51.140;17.184;2024-03-22T12:11:08;100068.00;;;14.28;66.67
59877;BME280;74472;51.140;17.184;2024-03-22T12:13:34;100060.72;;;14.30;65.86
59877;BME280;74472;51.140;17.184;2024-03-22T12:16:00;100057.94;;;14.32;66.35
59877;BME280;74472;51.140;17.184;2024-03-22T12:18:26;100053.59;;;14.31;65.37
59877;BME280;74472;51.140;17.184;2024-03-22T12:20:51;100043.69;;;14.33;65.67
59877;BME280;74472;51.140;17.184;2024-03-22T12:23:17;100046.75;;;14.38;65.57
59877;BME280;74472;51.140;17.184;2024-03-22T12:25:42;100038.63;;;14.40;65.90
59877;BME280;74472;51.140;17.184;2024-03-22T12:28:07;100035.53;;;14.44;66.06
59877;BME280;74472;51.140;17.184;2024-03-22T12:30:32;100037.91;;;14.47;66.33
59877;BME280;74472;51.140;17.184;2024-03-22T12:32:58;100043.91;;;14.49;65.89
59877;BME280;74472;51.140;17.184;2024-03-22T12:35:24;100025.22;;;14.51;66.64
59877;BME280;74472;51.140;17.184;2024-03-22T12:37:49;100026.63;;;14.55;66.17